»·PEaware :: N245LG KPSP-L05

N245LG :: KPSP-L05

FLIGHT INFORMATION

Flight Status: Arrived
Operator: Privately registered:
United States
More flights under this callsign
Pilot: Erik A. (17503)
Aircraft: CESSNA 172 SKYHAWK
(C172)
More flights by this aircraft type
Origin: KPSP Palm Springs Intl
United States
Destination: L05 Kern Valley
United States
More flights between these airports :: More routes between these airports
Route: +
File this flight plan on PilotEdge
Remarks:
Altitude:
(Current/Filed)
8,500ft
Speed:
(Current/Filed)
0kts
Departed: 15-Dec-17 02:34 PM
Arrived: 15-Dec-17 04:14 PM
Distance/Time
Traveled:
148nm/1:40
Distance/Time
To Go:
Arrived

Flight Plot

Page will automatically refresh every two minutes.

Flight plan parsing failed; only flown route is shown


Map Options




Map Legend


Flown Route
Filed Route
Departure Airport
Arrival Airport
Navaid (VOR, NDB)
Fix

Horizontal Profiles

Position Reports

Time Latitude Longitude Heading Altitude Ground
Speed
15-Dec-17 14:39 33.816338 -116.359471 315 4015ft 92kts
15-Dec-17 14:40 33.833717 -116.382738 312 4844ft 94kts
15-Dec-17 14:41 33.850491 -116.407795 312 5831ft 95kts
15-Dec-17 14:42 33.867680 -116.433430 310 6715ft 103kts
15-Dec-17 14:43 33.884787 -116.459050 315 7589ft 100kts
15-Dec-17 14:44 33.905382 -116.481266 321 8295ft 98kts
15-Dec-17 14:45 33.931097 -116.500817 341 8624ft 119kts
15-Dec-17 14:46 33.965238 -116.507335 358 8583ft 127kts
15-Dec-17 14:47 33.999617 -116.507473 2 8641ft 120kts
15-Dec-17 14:48 34.034149 -116.507635 1 8636ft 121kts
15-Dec-17 14:49 34.066625 -116.507569 0 8469ft 114kts
15-Dec-17 14:50 34.097910 -116.508564 359 8623ft 111kts
15-Dec-17 14:51 34.130794 -116.513531 346 8722ft 119kts
15-Dec-17 14:52 34.161510 -116.524818 343 8549ft 119kts
15-Dec-17 14:53 34.191285 -116.538698 332 8777ft 103kts
15-Dec-17 14:54 34.211354 -116.560380 312 9355ft 96kts
15-Dec-17 14:55 34.224287 -116.589099 299 10097ft 97kts
15-Dec-17 14:56 34.235823 -116.618918 298 10469ft 99kts
15-Dec-17 14:57 34.248157 -116.652449 295 10700ft 120kts
15-Dec-17 14:58 34.258429 -116.692352 287 10456ft 122kts
15-Dec-17 14:59 34.263061 -116.732100 274 9673ft 120kts
15-Dec-17 15:00 34.263537 -116.770914 272 8887ft 113kts
15-Dec-17 15:01 34.264024 -116.805249 272 8093ft 85kts
15-Dec-17 15:02 34.263915 -116.831453 266 7214ft 72kts
15-Dec-17 15:03 34.263815 -116.852185 268 6755ft 39kts
15-Dec-17 15:04 34.262196 -116.876070 257 7077ft 80kts
15-Dec-17 15:05 34.257696 -116.902497 258 7617ft 80kts
15-Dec-17 15:06 34.253890 -116.929865 274 8072ft 87kts
15-Dec-17 15:07 34.267661 -116.953244 309 8567ft 89kts
15-Dec-17 15:08 34.276014 -116.983191 268 8751ft 104kts
15-Dec-17 15:09 34.274928 -117.021247 272 8571ft 117kts
15-Dec-17 15:10 34.284021 -117.057658 300 8542ft 109kts
15-Dec-17 15:11 34.300102 -117.089427 278 8375ft 117kts
15-Dec-17 15:12 34.304004 -117.126917 283 8386ft 111kts
15-Dec-17 15:13 34.310339 -117.163433 274 8320ft 114kts
15-Dec-17 15:14 34.314533 -117.200753 280 8276ft 112kts
15-Dec-17 15:15 34.318951 -117.237765 280 8300ft 111kts
15-Dec-17 15:16 34.326685 -117.274090 290 8612ft 116kts
15-Dec-17 15:17 34.343907 -117.310181 316 8406ft 126kts
15-Dec-17 15:18 34.368506 -117.335928 318 8304ft 107kts
15-Dec-17 15:19 34.386008 -117.365182 305 8381ft 112kts
15-Dec-17 15:20 34.404108 -117.395946 301 8449ft 113kts
15-Dec-17 15:21 34.419996 -117.431558 299 8560ft 121kts
15-Dec-17 15:22 34.434756 -117.467914 295 8524ft 123kts
15-Dec-17 15:23 34.449040 -117.506481 295 8362ft 128kts
15-Dec-17 15:24 34.472636 -117.534158 339 8285ft 121kts
15-Dec-17 15:25 34.502432 -117.545994 341 8729ft 113kts
15-Dec-17 15:26 34.535387 -117.556577 348 8614ft 126kts
15-Dec-17 15:27 34.568668 -117.571019 340 8330ft 124kts
15-Dec-17 15:28 34.600195 -117.583094 345 8276ft 114kts
15-Dec-17 15:29 34.631935 -117.587369 349 8222ft 112kts
15-Dec-17 15:30 34.661432 -117.596574 345 8357ft 107kts
15-Dec-17 15:31 34.690732 -117.604531 349 8460ft 111kts
15-Dec-17 15:32 34.718019 -117.619284 324 8586ft 109kts
15-Dec-17 15:33 34.742134 -117.643049 315 8553ft 116kts
15-Dec-17 15:34 34.765481 -117.670814 314 8464ft 119kts
15-Dec-17 15:35 34.788775 -117.699939 316 8296ft 124kts
15-Dec-17 15:36 34.813644 -117.726162 320 8287ft 115kts
15-Dec-17 15:37 34.837955 -117.750738 323 8304ft 115kts
15-Dec-17 15:38 34.862954 -117.772796 318 8351ft 115kts
15-Dec-17 15:39 34.886135 -117.799810 318 8393ft 109kts
15-Dec-17 15:40 34.908634 -117.826834 308 8392ft 110kts
15-Dec-17 15:41 34.929675 -117.855008 315 8422ft 110kts
15-Dec-17 15:42 34.952294 -117.880821 312 8431ft 113kts
15-Dec-17 15:43 34.976454 -117.904521 329 8483ft 112kts
15-Dec-17 15:44 35.004189 -117.922134 334 8493ft 114kts
15-Dec-17 15:45 35.032807 -117.938524 334 8511ft 113kts
15-Dec-17 15:46 35.062522 -117.951625 341 8530ft 114kts
15-Dec-17 15:47 35.092849 -117.964357 333 8474ft 117kts
15-Dec-17 15:48 35.122138 -117.981674 333 8446ft 116kts
15-Dec-17 15:49 35.151598 -117.996437 346 8473ft 115kts
15-Dec-17 15:50 35.183127 -118.007019 335 8422ft 116kts
15-Dec-17 15:51 35.207254 -118.030464 298 8682ft 109kts
15-Dec-17 15:52 35.219750 -118.061387 293 9161ft 98kts
15-Dec-17 15:53 35.231001 -118.091122 288 9663ft 101kts
15-Dec-17 15:54 35.240965 -118.122939 291 10259ft 98kts
15-Dec-17 15:55 35.251202 -118.155257 288 10517ft 115kts
15-Dec-17 15:56 35.263493 -118.192375 296 10582ft 119kts
15-Dec-17 15:57 35.279545 -118.227780 296 10383ft 120kts
15-Dec-17 15:58 35.294825 -118.262503 300 10360ft 114kts
15-Dec-17 15:59 35.310864 -118.295626 302 10349ft 112kts
15-Dec-17 16:00 35.329217 -118.325722 304 10476ft 107kts
15-Dec-17 16:01 35.345313 -118.357543 299 10497ft 113kts
15-Dec-17 16:02 35.361965 -118.388826 305 10631ft 110kts
15-Dec-17 16:03 35.380273 -118.419387 305 10684ft 111kts
15-Dec-17 16:04 35.400731 -118.447973 309 10756ft 111kts
15-Dec-17 16:05 35.423565 -118.473876 328 10726ft 118kts
15-Dec-17 16:06 35.454806 -118.488761 346 10545ft 124kts
15-Dec-17 16:07 35.490603 -118.491671 359 9943ft 134kts
15-Dec-17 16:08 35.527390 -118.490628 1 9102ft 134kts
15-Dec-17 16:09 35.564123 -118.484321 4 8053ft 132kts
15-Dec-17 16:10 35.600004 -118.474293 12 7378ft 129kts
15-Dec-17 16:11 35.633107 -118.465279 24 7130ft 127kts
15-Dec-17 16:12 35.653481 -118.432532 69 6840ft 117kts
15-Dec-17 16:13 35.662329 -118.399571 140 6445ft 92kts
15-Dec-17 16:14 35.660297 -118.417159 310 5943ft 84kts
15-Dec-17 16:15 35.673671 -118.434603 214 5223ft 75kts
15-Dec-17 16:16 35.678589 -118.443729 50 4154ft 99kts
15-Dec-17 16:17 35.693219 -118.426950 17 3639ft 64kts
15-Dec-17 16:18 35.709807 -118.421685 2 3158ft 65kts
15-Dec-17 16:19 35.728139 -118.419717 358 2648ft 51kts
15-Dec-17 16:20 35.732562 -118.418778 185 2645ft 0kts
15-Dec-17 16:21 35.730685 -118.418964 183 2645ft 12kts
15-Dec-17 16:22 35.727173 -118.419434 177 2645ft 12kts
15-Dec-17 16:23 35.723821 -118.417716 176 2645ft 13kts
15-Dec-17 16:24 35.722080 -118.417627 100 2645ft 0kts
15-Dec-17 16:25 35.722080 -118.417625 100 2645ft 0kts

Navigation Log

Ident Type
Flight plan parsing failed, navigation log unavailable